Broad Blunsdon, United Kingdom
Current Conditions -  °F | °C
As of 12:42 PM on Friday 24 Oct 2014 (Local Time) from EGVA Reporting Station
Overcast Overcast  
Wind Chill: 59°   Ceiling: 900
Heat Index: 59°   Visibility: 6mi
Dew Point: 57°   Wind: 8mph
Humidity: 94%   Direction: 230°SW
Pressure: 29.92"   Gusts: NA
Location:  51.61°N, 1.78°W
Report Text: EGVA 241142Z AUTO 23007KT 9999 BKN009 OVC018 15/14 A2992 RMK AO2 RAE1119B1141DZB1105E1141 CIG 009V015 BKN V SCT
Loading
Personal Weather Stations






























Interactive Weather Map New forecast layout! Learn more

10-Day Weather Forecast

Advertisements
Track Severe Weather on mobile